Time;durP1;ratioP1;P1;durP2;ratioP2;P2;SDS_P1;SDS_P2;PMS_P1;PMS_P2;Temp;Humidity;BMP_temperature;BMP_pressure;BME280_temperature;BME280_humidity;BME280_pressure;Samples;Min_cycle;Max_cycle;Signal;HPM_P1;HPM_P2
2023/04/12 00:01:53;;;;;;;4.10;2.43;;;7.60;99.90;;;;;;5044507;28;20461;-58
2023/04/12 00:04:21;;;;;;;5.63;3.10;;;7.60;99.90;;;;;;5044469;28;20175;-59
2023/04/12 00:06:47;;;;;;;3.43;2.63;;;7.60;99.90;;;;;;5046281;28;20279;-59
2023/04/12 00:09:14;;;;;;;3.03;2.40;;;7.60;99.90;;;;;;5036178;28;20481;-59
2023/04/12 00:11:40;;;;;;;4.17;2.60;;;7.60;99.90;;;;;;5045821;28;20988;-59
2023/04/12 00:14:06;;;;;;;4.57;2.70;;;7.60;99.90;;;;;;5043078;28;20436;-59
2023/04/12 00:16:32;;;;;;;5.00;2.97;;;7.50;99.90;;;;;;5045771;28;20479;-58
2023/04/12 00:19:00;;;;;;;2.90;2.70;;;7.50;99.90;;;;;;5042778;28;20421;-58
2023/04/12 00:21:27;;;;;;;3.50;3.20;;;7.50;99.90;;;;;;5045652;28;20926;-59
2023/04/12 00:23:53;;;;;;;3.77;3.13;;;7.50;99.90;;;;;;5047680;28;20528;-59
2023/04/12 00:26:23;;;;;;;5.70;2.80;;;7.50;99.90;;;;;;5042666;28;20473;-60
2023/04/12 00:28:49;;;;;;;5.50;2.70;;;7.50;99.90;;;;;;5042251;28;20425;-59
2023/04/12 00:31:15;;;;;;;3.67;2.93;;;7.50;99.90;;;;;;5031977;28;20962;-60
2023/04/12 00:33:40;;;;;;;4.93;3.10;;;7.50;99.90;;;;;;5042261;28;20182;-58
2023/04/12 00:36:06;;;;;;;4.40;2.77;;;7.50;99.90;;;;;;5047005;28;20191;-58
2023/04/12 00:38:32;;;;;;;5.00;3.00;;;7.50;99.90;;;;;;5045108;28;20274;-59
2023/04/12 00:40:58;;;;;;;3.97;2.97;;;7.50;99.90;;;;;;5044321;28;20442;-58
2023/04/12 00:43:26;;;;;;;3.23;2.80;;;7.50;99.90;;;;;;5043799;28;20172;-60
2023/04/12 00:45:54;;;;;;;2.87;2.67;;;7.50;99.90;;;;;;5045433;28;20202;-59
2023/04/12 00:48:20;;;;;;;5.37;3.30;;;7.50;99.90;;;;;;5045445;28;20436;-59
2023/04/12 00:50:46;;;;;;;5.07;2.90;;;7.50;99.90;;;;;;5045431;28;20874;-59
2023/04/12 00:53:16;;;;;;;4.87;3.10;;;7.50;99.90;;;;;;5046628;28;20186;-58
2023/04/12 00:55:45;;;;;;;5.27;3.43;;;7.50;99.90;;;;;;5048061;28;20282;-58
2023/04/12 00:58:13;;;;;;;4.50;2.90;;;7.50;99.90;;;;;;5025944;28;20456;-58
2023/04/12 01:00:38;;;;;;;4.10;2.70;;;7.40;99.90;;;;;;5043270;28;20488;-60
2023/04/12 01:03:07;;;;;;;5.37;3.73;;;7.40;99.90;;;;;;5044022;28;20458;-58
2023/04/12 01:05:39;;;;;;;6.33;3.20;;;7.40;99.90;;;;;;5034900;28;20249;-60
2023/04/12 01:08:18;;;;;;;5.10;3.17;;;7.40;99.90;;;;;;5045355;28;20469;-59
2023/04/12 01:11:27;;;;;;;5.73;3.63;;;7.40;99.90;;;;;;5037504;28;20430;-58
2023/04/12 01:13:55;;;;;;;4.23;2.80;;;7.40;99.90;;;;;;4980756;28;21062;-57
2023/04/12 01:16:33;;;;;;;5.17;3.23;;;7.40;99.90;;;;;;4986240;28;20455;-59
2023/04/12 01:19:03;;;;;;;4.17;3.43;;;7.40;99.90;;;;;;5014897;28;20441;-59
2023/04/12 01:21:45;;;;;;;3.27;2.97;;;7.40;99.90;;;;;;5045714;28;20516;-59
2023/04/12 01:24:16;;;;;;;4.80;3.73;;;7.40;99.90;;;;;;5050088;28;20440;-59
2023/04/12 01:26:47;;;;;;;6.60;3.90;;;7.40;99.90;;;;;;5049514;28;21222;-59
2023/04/12 01:29:19;;;;;;;4.57;3.80;;;7.40;99.90;;;;;;5052040;28;20914;-58
2023/04/12 01:32:04;;;;;;;4.30;3.90;;;7.40;99.90;;;;;;5047111;28;20437;-59
2023/04/12 01:34:32;;;;;;;6.27;3.40;;;7.40;99.90;;;;;;5041792;28;20529;-59
2023/04/12 01:37:00;;;;;;;7.90;4.10;;;7.40;99.90;;;;;;5048393;28;20650;-59
2023/04/12 01:39:27;;;;;;;5.03;4.07;;;7.40;99.90;;;;;;5049958;28;20532;-59
2023/04/12 01:41:52;;;;;;;5.80;4.00;;;7.30;99.90;;;;;;5046132;28;20836;-58
2023/04/12 01:44:18;;;;;;;4.20;3.80;;;7.40;99.90;;;;;;5040138;28;20501;-59
2023/04/12 01:46:46;;;;;;;7.07;3.70;;;7.30;99.90;;;;;;5047127;28;20194;-58
2023/04/12 01:49:12;;;;;;;4.90;3.60;;;7.30;99.90;;;;;;5049508;28;20258;-58
2023/04/12 01:51:39;;;;;;;6.30;3.83;;;7.30;99.90;;;;;;5049907;28;20883;-59
2023/04/12 01:54:18;;;;;;;5.30;4.07;;;7.30;99.90;;;;;;5028020;28;20949;-58
2023/04/12 01:56:46;;;;;;;5.07;4.10;;;7.40;99.90;;;;;;5046958;28;20457;-59
2023/04/12 01:59:14;;;;;;;3.20;2.73;;;7.40;99.90;;;;;;5049061;28;20429;-59
2023/04/12 02:01:40;;;;;;;3.80;2.83;;;7.40;99.90;;;;;;5043522;28;20528;-59
2023/04/12 02:04:08;;;;;;;3.43;2.87;;;7.40;99.90;;;;;;5045611;28;20513;-58
2023/04/12 02:06:33;;;;;;;8.17;3.20;;;7.30;99.90;;;;;;5029553;28;21082;-58
2023/04/12 02:09:01;;;;;;;3.80;2.90;;;7.30;99.90;;;;;;5049609;28;20508;-58
2023/04/12 02:11:27;;;;;;;3.00;2.70;;;7.30;99.90;;;;;;5044484;28;20813;-58
2023/04/12 02:13:53;;;;;;;5.10;3.10;;;7.30;99.90;;;;;;5046491;28;20442;-60
2023/04/12 02:16:19;;;;;;;3.50;2.67;;;7.40;99.90;;;;;;5044483;28;20445;-58
2023/04/12 02:18:46;;;;;;;6.97;3.10;;;7.40;99.90;;;;;;5046758;28;20202;-58
2023/04/12 02:21:12;;;;;;;6.37;3.60;;;7.40;99.90;;;;;;5046904;28;20512;-58
2023/04/12 02:23:37;;;;;;;5.67;2.67;;;7.30;99.90;;;;;;5048094;28;21139;-59
2023/04/12 02:26:03;;;;;;;5.53;2.90;;;7.30;99.90;;;;;;5046368;28;20211;-60
2023/04/12 02:28:29;;;;;;;4.33;3.30;;;7.30;99.90;;;;;;5043263;28;20272;-58
2023/04/12 02:30:55;;;;;;;4.27;3.23;;;7.30;99.90;;;;;;5046728;28;20175;-59
2023/04/12 02:33:24;;;;;;;3.57;3.17;;;7.30;99.90;;;;;;5043871;28;20176;-59
2023/04/12 02:35:50;;;;;;;3.47;3.00;;;7.30;99.90;;;;;;5046716;28;20207;-58
2023/04/12 02:38:16;;;;;;;4.13;3.17;;;7.30;99.90;;;;;;5040719;28;20460;-60
2023/04/12 02:40:41;;;;;;;5.93;3.40;;;7.30;99.90;;;;;;5082789;22;20493;-56
2023/04/12 02:43:08;;;;;;;3.50;2.90;;;7.30;99.90;;;;;;5027655;28;20171;-56
2023/04/12 02:45:34;;;;;;;8.80;3.57;;;7.30;99.90;;;;;;5047649;28;20171;-57
2023/04/12 02:47:59;;;;;;;4.27;3.53;;;7.20;99.90;;;;;;5043891;28;20429;-56
2023/04/12 02:50:25;;;;;;;4.23;3.50;;;7.20;99.90;;;;;;5054854;28;20186;-56
2023/04/12 02:52:50;;;;;;;8.50;3.53;;;7.20;99.90;;;;;;5068297;28;20684;-56
2023/04/12 02:55:16;;;;;;;6.77;3.40;;;7.20;99.90;;;;;;5067925;28;20178;-54
2023/04/12 02:57:44;;;;;;;3.10;2.80;;;7.20;99.90;;;;;;5066879;28;20743;-58
2023/04/12 03:00:11;;;;;;;5.43;2.97;;;7.20;99.90;;;;;;5066101;28;20550;-56
2023/04/12 03:02:36;;;;;;;3.87;3.47;;;7.20;99.90;;;;;;5065245;28;20433;-56
2023/04/12 03:05:03;;;;;;;4.93;3.67;;;7.20;99.90;;;;;;5062305;28;20448;-54
2023/04/12 03:07:29;;;;;;;6.47;3.60;;;7.20;99.90;;;;;;5065389;28;20274;-55
2023/04/12 03:09:55;;;;;;;7.47;4.80;;;7.20;99.90;;;;;;5066944;28;20451;-57
2023/04/12 03:12:21;;;;;;;3.40;3.10;;;7.20;99.90;;;;;;5066902;28;20459;-55
2023/04/12 03:14:47;;;;;;;6.60;3.30;;;7.20;99.90;;;;;;5065459;28;21111;-56
2023/04/12 03:17:12;;;;;;;4.77;4.27;;;7.20;99.90;;;;;;5067054;28;20851;-56
2023/04/12 03:19:38;;;;;;;4.87;4.00;;;7.20;99.90;;;;;;5065654;28;20201;-56
2023/04/12 03:22:04;;;;;;;7.00;4.30;;;7.20;99.90;;;;;;5068363;28;20569;-56
2023/04/12 03:24:33;;;;;;;6.20;4.20;;;7.20;99.90;;;;;;5066457;28;20178;-56
2023/04/12 03:27:03;;;;;;;5.00;4.00;;;7.20;99.90;;;;;;5065923;28;20421;-55
2023/04/12 03:29:30;;;;;;;14.33;6.63;;;7.20;99.90;;;;;;5058189;28;21013;-55
2023/04/12 03:31:57;;;;;;;7.50;6.03;;;7.20;99.90;;;;;;5058429;28;20427;-56
2023/04/12 03:34:23;;;;;;;7.73;4.40;;;7.10;99.90;;;;;;5066592;28;20458;-55
2023/04/12 03:36:49;;;;;;;4.60;4.20;;;7.10;99.90;;;;;;5066424;28;20456;-55
2023/04/12 03:39:15;;;;;;;6.27;4.20;;;7.10;99.90;;;;;;5068171;28;20982;-55
2023/04/12 03:41:41;;;;;;;5.73;4.40;;;7.10;99.90;;;;;;5060372;28;20467;-55
2023/04/12 03:44:07;;;;;;;5.23;3.50;;;7.10;99.90;;;;;;5064074;28;20209;-55
2023/04/12 03:46:33;;;;;;;3.53;2.90;;;7.10;99.90;;;;;;5067627;28;20984;-56
2023/04/12 03:48:58;;;;;;;3.53;3.07;;;7.10;99.90;;;;;;5055339;28;20181;-54
2023/04/12 03:51:25;;;;;;;3.93;3.53;;;7.20;99.90;;;;;;5065192;28;20453;-55
2023/04/12 03:53:52;;;;;;;3.47;3.17;;;7.20;99.90;;;;;;5050518;28;20175;-56
2023/04/12 03:56:18;;;;;;;6.33;3.67;;;7.20;99.90;;;;;;5068176;28;20831;-55
2023/04/12 03:58:44;;;;;;;5.37;3.70;;;7.20;99.90;;;;;;5058884;28;20821;-55
2023/04/12 04:01:12;;;;;;;3.50;3.10;;;7.10;99.90;;;;;;5061700;28;20474;-54
2023/04/12 04:03:39;;;;;;;4.63;3.30;;;7.10;99.90;;;;;;5053378;28;20178;-55
2023/04/12 04:06:06;;;;;;;7.30;3.57;;;7.10;99.90;;;;;;5057849;28;20440;-56
2023/04/12 04:08:33;;;;;;;7.07;3.40;;;7.10;99.90;;;;;;5062702;28;20889;-55
2023/04/12 04:10:59;;;;;;;6.73;4.23;;;7.10;99.90;;;;;;5060812;28;20507;-54
2023/04/12 04:13:25;;;;;;;11.10;4.10;;;7.10;99.90;;;;;;5060005;28;20450;-56
2023/04/12 04:15:59;;;;;;;4.00;3.10;;;7.10;99.90;;;;;;5061889;28;20809;-54
2023/04/12 04:18:24;;;;;;;3.37;3.07;;;7.10;99.90;;;;;;5060833;28;20202;-57
2023/04/12 04:20:50;;;;;;;3.27;2.97;;;7.10;99.90;;;;;;5051456;28;20453;-57
2023/04/12 04:23:16;;;;;;;3.13;2.87;;;7.10;99.90;;;;;;5054876;28;20255;-56
2023/04/12 04:25:42;;;;;;;2.80;2.60;;;7.10;99.90;;;;;;5049547;28;20916;-54
2023/04/12 04:28:08;;;;;;;3.77;3.20;;;7.10;99.90;;;;;;5061756;28;20190;-54
2023/04/12 04:30:37;;;;;;;4.07;2.90;;;7.00;99.90;;;;;;5063351;28;20453;-54
2023/04/12 04:33:04;;;;;;;2.77;2.57;;;7.00;99.90;;;;;;5052158;28;20440;-55
2023/04/12 04:35:30;;;;;;;3.10;2.77;;;7.00;99.90;;;;;;5064654;28;20940;-55
2023/04/12 04:37:56;;;;;;;3.10;2.50;;;7.00;99.90;;;;;;5054005;28;20460;-54
2023/04/12 04:40:23;;;;;;;3.20;2.80;;;7.00;99.90;;;;;;5053588;28;20492;-55
2023/04/12 04:42:53;;;;;;;3.10;2.37;;;7.00;99.90;;;;;;5055714;28;20437;-55
2023/04/12 04:45:26;;;;;;;2.57;2.10;;;7.00;99.90;;;;;;5062938;28;20469;-57
2023/04/12 04:47:52;;;;;;;3.00;2.20;;;7.00;99.90;;;;;;5060063;28;20529;-55
2023/04/12 04:50:20;;;;;;;2.60;2.40;;;7.00;99.90;;;;;;5060204;28;21400;-55
2023/04/12 04:52:47;;;;;;;5.07;2.60;;;7.00;99.90;;;;;;5066040;28;21218;-55
2023/04/12 04:55:13;;;;;;;4.90;3.10;;;7.00;99.90;;;;;;5061112;28;20448;-56
2023/04/12 04:57:40;;;;;;;5.37;2.60;;;6.90;99.90;;;;;;5059126;28;21232;-56
2023/04/12 05:00:10;;;;;;;2.57;2.37;;;7.00;99.90;;;;;;5056940;28;21186;-55
2023/04/12 05:02:38;;;;;;;2.60;2.10;;;7.00;99.90;;;;;;5059288;28;20432;-57
2023/04/12 05:05:06;;;;;;;4.13;3.10;;;6.90;99.90;;;;;;5059387;28;20917;-54
2023/04/12 05:07:31;;;;;;;2.63;2.27;;;6.90;99.90;;;;;;5054695;28;20432;-56
2023/04/12 05:09:57;;;;;;;2.70;2.47;;;6.90;99.90;;;;;;5059501;28;20848;-55
2023/04/12 05:12:22;;;;;;;3.30;2.67;;;6.90;99.90;;;;;;5052199;28;20186;-55
2023/04/12 05:14:48;;;;;;;3.90;3.20;;;6.90;99.90;;;;;;5058647;28;21173;-57
2023/04/12 05:17:14;;;;;;;5.37;3.17;;;6.90;99.90;;;;;;5060383;28;20209;-56
2023/04/12 05:19:42;;;;;;;4.77;2.90;;;6.90;99.90;;;;;;5065021;28;20216;-57
2023/04/12 05:22:08;;;;;;;3.70;2.43;;;7.00;99.90;;;;;;5062230;28;20182;-56
2023/04/12 05:24:33;;;;;;;6.20;3.20;;;7.00;99.90;;;;;;5062860;28;20424;-57
2023/04/12 05:26:59;;;;;;;3.30;3.00;;;7.00;99.90;;;;;;5050802;28;20187;-57
2023/04/12 05:29:24;;;;;;;4.57;2.80;;;7.00;99.90;;;;;;5059541;28;20561;-57
2023/04/12 05:31:50;;;;;;;6.87;2.50;;;7.00;99.90;;;;;;5051141;28;20281;-57
2023/04/12 05:34:15;;;;;;;3.00;2.73;;;7.00;99.90;;;;;;5050067;28;20694;-59
2023/04/12 05:36:41;;;;;;;3.50;2.90;;;7.00;99.90;;;;;;5053472;28;20186;-57
2023/04/12 05:39:07;;;;;;;3.90;3.23;;;7.00;99.90;;;;;;5057112;28;20228;-57
2023/04/12 05:41:32;;;;;;;3.07;2.87;;;7.00;99.90;;;;;;5056780;28;20267;-58
2023/04/12 05:43:58;;;;;;;4.27;3.87;;;7.00;99.90;;;;;;5055709;28;20562;-54
2023/04/12 05:46:23;;;;;;;3.33;2.93;;;7.00;99.90;;;;;;5054460;28;20232;-57
2023/04/12 05:48:49;;;;;;;3.30;2.80;;;7.00;99.90;;;;;;5057830;28;20190;-56
2023/04/12 05:51:15;;;;;;;5.03;3.40;;;7.10;99.90;;;;;;5057032;28;20246;-56
2023/04/12 05:53:41;;;;;;;2.77;2.57;;;7.10;99.90;;;;;;5057140;28;20240;-56
2023/04/12 05:56:06;;;;;;;4.40;2.93;;;7.10;99.90;;;;;;5056322;28;20190;-56
2023/04/12 05:58:32;;;;;;;3.53;3.10;;;7.10;99.90;;;;;;5056901;28;20835;-56
2023/04/12 06:00:58;;;;;;;3.43;3.07;;;7.20;99.90;;;;;;5054580;28;20243;-55
2023/04/12 06:03:24;;;;;;;3.67;3.03;;;7.20;99.90;;;;;;5056122;28;20531;-57
2023/04/12 06:05:51;;;;;;;4.20;3.03;;;7.20;99.90;;;;;;5057028;28;20793;-58
2023/04/12 06:08:17;;;;;;;4.90;3.37;;;7.20;99.90;;;;;;5059984;28;20179;-56
2023/04/12 06:10:42;;;;;;;3.70;3.30;;;7.30;99.90;;;;;;5057014;28;21185;-57
2023/04/12 06:13:08;;;;;;;6.67;3.50;;;7.30;99.90;;;;;;5066988;28;20197;-57
2023/04/12 06:15:35;;;;;;;4.90;3.70;;;7.30;99.90;;;;;;5060512;28;20182;-55
2023/04/12 06:18:00;;;;;;;4.13;3.17;;;7.30;99.90;;;;;;5063021;28;20198;-54
2023/04/12 06:20:26;;;;;;;4.60;3.40;;;7.30;99.90;;;;;;5059046;28;20466;-57
2023/04/12 06:22:52;;;;;;;4.77;3.00;;;7.30;99.90;;;;;;5065044;28;20717;-57
2023/04/12 06:25:17;;;;;;;5.63;3.40;;;7.30;99.90;;;;;;5064802;28;20244;-57
2023/04/12 06:27:43;;;;;;;3.33;3.03;;;7.30;99.90;;;;;;5062611;28;20167;-58
2023/04/12 06:30:09;;;;;;;3.43;3.10;;;7.30;99.90;;;;;;5062089;28;20281;-56
2023/04/12 06:32:37;;;;;;;3.57;3.27;;;7.20;99.90;;;;;;5062882;28;20265;-56
2023/04/12 06:35:03;;;;;;;3.80;3.40;;;7.20;99.90;;;;;;5063355;28;20535;-57
2023/04/12 06:37:29;;;;;;;4.87;3.30;;;7.30;99.90;;;;;;5066586;28;20460;-56
2023/04/12 06:39:54;;;;;;;4.70;3.10;;;7.30;99.90;;;;;;5047703;28;20546;-55
2023/04/12 06:42:20;;;;;;;5.97;3.40;;;7.40;99.90;;;;;;5061542;28;20186;-56
2023/04/12 06:44:46;;;;;;;7.53;3.80;;;7.40;99.90;;;;;;5060014;28;20194;-57
2023/04/12 06:47:11;;;;;;;5.23;4.23;;;7.40;99.90;;;;;;5061170;28;20711;-56
2023/04/12 06:49:37;;;;;;;4.83;3.80;;;7.50;99.90;;;;;;5064083;28;20223;-56
2023/04/12 06:52:03;;;;;;;3.90;3.50;;;7.50;99.90;;;;;;5061931;28;20546;-56
2023/04/12 06:54:29;;;;;;;6.03;4.23;;;7.60;99.90;;;;;;5065875;28;20433;-56
2023/04/12 06:56:56;;;;;;;6.00;3.87;;;7.60;99.90;;;;;;5063532;28;20825;-56
2023/04/12 06:59:22;;;;;;;4.50;3.60;;;7.60;99.90;;;;;;5063589;28;20171;-55
2023/04/12 07:01:47;;;;;;;4.93;4.03;;;7.70;99.90;;;;;;5063537;28;20910;-57
2023/04/12 07:04:13;;;;;;;6.67;3.80;;;7.70;99.90;;;;;;5065195;28;20170;-57
2023/04/12 07:06:38;;;;;;;5.23;4.57;;;7.80;99.90;;;;;;5059770;28;20174;-57
2023/04/12 07:09:04;;;;;;;6.57;4.27;;;7.80;99.90;;;;;;5058969;28;20603;-54
2023/04/12 07:11:30;;;;;;;8.73;4.90;;;7.80;99.90;;;;;;5063924;28;20187;-56
2023/04/12 07:13:57;;;;;;;6.23;4.80;;;7.80;99.90;;;;;;5062667;28;20182;-58
2023/04/12 07:16:24;;;;;;;5.07;4.53;;;7.80;99.90;;;;;;5060211;28;20463;-58
2023/04/12 07:18:50;;;;;;;6.23;5.23;;;7.90;99.90;;;;;;5064558;28;20472;-54
2023/04/12 07:21:16;;;;;;;10.40;4.77;;;7.90;99.90;;;;;;5066662;28;20451;-57
2023/04/12 07:23:42;;;;;;;7.90;4.93;;;7.90;99.90;;;;;;5059804;28;20194;-58
2023/04/12 07:26:08;;;;;;;6.77;4.80;;;7.90;99.90;;;;;;5064792;28;20429;-58
2023/04/12 07:28:38;;;;;;;6.10;4.60;;;7.90;99.90;;;;;;5064856;28;20486;-58
2023/04/12 07:31:06;;;;;;;8.07;4.50;;;7.90;99.90;;;;;;5061979;28;20255;-57
2023/04/12 07:33:34;;;;;;;4.80;3.70;;;7.90;99.90;;;;;;5067713;28;20448;-57
2023/04/12 07:36:00;;;;;;;5.67;4.40;;;7.90;99.90;;;;;;5066709;28;20432;-58
2023/04/12 07:38:26;;;;;;;5.23;4.30;;;7.90;99.90;;;;;;5066407;28;20472;-58
2023/04/12 07:40:53;;;;;;;6.73;3.83;;;7.90;99.90;;;;;;5062469;28;20469;-58
2023/04/12 07:43:19;;;;;;;6.87;4.00;;;7.90;99.90;;;;;;5061612;28;20189;-57
2023/04/12 07:45:44;;;;;;;6.60;4.03;;;8.00;99.90;;;;;;5063788;28;21083;-54
2023/04/12 07:48:11;;;;;;;6.60;4.70;;;8.00;99.90;;;;;;5061072;28;20181;-64
2023/04/12 07:50:37;;;;;;;8.53;4.90;;;8.10;99.90;;;;;;5062977;28;20256;-58
2023/04/12 07:53:22;;;;;;;6.30;4.43;;;8.10;99.90;;;;;;5061398;28;20437;-59
2023/04/12 07:55:49;;;;;;;6.50;5.13;;;8.10;99.90;;;;;;5062784;28;20429;-57
2023/04/12 07:58:15;;;;;;;9.07;5.43;;;8.20;99.90;;;;;;5062294;28;20835;-58
2023/04/12 08:00:42;;;;;;;8.53;4.70;;;8.20;99.90;;;;;;5056595;28;20540;-57
2023/04/12 08:03:07;;;;;;;5.17;4.57;;;8.30;99.90;;;;;;5038960;28;20429;-58
2023/04/12 08:05:33;;;;;;;5.33;4.67;;;8.40;99.90;;;;;;5051353;28;20424;-58
2023/04/12 08:07:59;;;;;;;7.20;4.63;;;8.60;99.90;;;;;;5052820;28;20194;-58
2023/04/12 08:10:25;;;;;;;6.23;4.30;;;8.70;99.90;;;;;;5051124;28;20449;-58
2023/04/12 08:12:50;;;;;;;6.53;4.50;;;8.80;99.90;;;;;;5060492;28;20214;-58
2023/04/12 08:15:16;;;;;;;5.20;4.50;;;8.80;99.90;;;;;;5052406;28;20554;-58
2023/04/12 08:17:42;;;;;;;6.90;5.10;;;8.90;99.90;;;;;;5050014;28;20683;-57
2023/04/12 08:20:08;;;;;;;5.80;4.57;;;8.90;99.90;;;;;;5059323;28;20202;-57
2023/04/12 08:22:34;;;;;;;4.57;4.10;;;8.90;99.90;;;;;;5060135;28;20425;-57
2023/04/12 08:25:00;;;;;;;4.63;4.23;;;9.00;99.90;;;;;;5053554;28;20432;-58
2023/04/12 08:27:28;;;;;;;4.93;4.40;;;9.00;99.90;;;;;;5053103;28;20175;-58
2023/04/12 08:29:54;;;;;;;7.50;4.80;;;9.00;99.90;;;;;;5055523;28;20708;-58
2023/04/12 08:32:20;;;;;;;8.00;4.60;;;9.10;99.90;;;;;;5052107;28;20417;-55
2023/04/12 08:34:46;;;;;;;6.50;5.00;;;9.10;99.90;;;;;;5053927;28;20182;-54
2023/04/12 08:37:11;;;;;;;7.80;5.00;;;9.10;99.90;;;;;;5055070;28;20509;-57
2023/04/12 08:39:37;;;;;;;5.60;4.60;;;9.10;99.90;;;;;;5055934;28;20175;-57
2023/04/12 08:42:03;;;;;;;6.00;4.50;;;9.20;99.90;;;;;;5050691;28;20178;-56
2023/04/12 08:44:37;;;;;;;5.40;4.77;;;9.20;99.90;;;;;;5059553;28;20178;-57
2023/04/12 08:47:08;;;;;;;5.97;4.67;;;9.30;99.90;;;;;;5059426;28;20459;-59
2023/04/12 08:49:34;;;;;;;7.20;5.10;;;9.40;99.90;;;;;;5052826;28;20437;-54
2023/04/12 08:52:05;;;;;;;9.57;5.00;;;9.50;99.90;;;;;;5047648;28;20455;-56
2023/04/12 08:54:32;;;;;;;5.33;4.37;;;9.40;99.90;;;;;;5052075;28;20511;-56
2023/04/12 08:57:03;;;;;;;6.00;4.57;;;9.50;99.90;;;;;;5053500;28;20478;-57
2023/04/12 08:59:30;;;;;;;5.07;4.20;;;9.60;99.90;;;;;;5052558;28;20524;-54
2023/04/12 09:01:57;;;;;;;6.77;4.47;;;9.70;99.90;;;;;;5052622;28;20459;-55
2023/04/12 09:04:23;;;;;;;7.33;4.27;;;9.80;99.90;;;;;;5054575;22;21018;-59
2023/04/12 09:06:49;;;;;;;5.33;4.40;;;9.90;99.90;;;;;;5032998;28;20429;-59
2023/04/12 09:09:15;;;;;;;7.40;4.67;;;10.00;99.90;;;;;;5025525;28;20513;-60
2023/04/12 09:11:41;;;;;;;5.93;4.00;;;10.10;99.90;;;;;;5038041;28;20197;-60
2023/04/12 09:14:24;;;;;;;6.57;4.23;;;10.20;99.90;;;;;;5036458;28;20199;-61
2023/04/12 09:16:50;;;;;;;7.07;4.80;;;10.30;99.90;;;;;;5040511;28;20178;-59
2023/04/12 09:19:29;;;;;;;8.60;5.03;;;10.40;99.90;;;;;;5041429;28;20437;-59
2023/04/12 09:21:55;;;;;;;11.33;4.40;;;10.50;99.90;;;;;;5026641;28;20437;-62
2023/04/12 09:24:24;;;;;;;6.40;4.20;;;10.60;99.90;;;;;;5036773;28;20455;-60
2023/04/12 09:27:10;;;;;;;5.60;4.17;;;10.60;99.90;;;;;;5036831;28;20483;-60
2023/04/12 09:29:36;;;;;;;4.63;3.93;;;10.60;99.90;;;;;;5033179;28;20455;-60
2023/04/12 09:32:02;;;;;;;6.43;3.27;;;10.60;99.90;;;;;;5038523;28;20425;-59
2023/04/12 09:34:29;;;;;;;5.47;3.83;;;10.60;99.90;;;;;;5033866;28;20205;-59
2023/04/12 09:36:55;;;;;;;9.80;4.60;;;10.60;99.90;;;;;;5020435;28;20437;-60
2023/04/12 09:39:32;;;;;;;7.77;4.30;;;10.60;99.90;;;;;;5039140;28;20476;-59
2023/04/12 09:42:07;;;;;;;6.07;4.03;;;10.60;99.90;;;;;;5037944;28;20429;-59
2023/04/12 09:44:33;;;;;;;6.90;3.30;;;10.70;99.90;;;;;;5029775;28;20445;-59
2023/04/12 09:47:04;;;;;;;3.77;3.13;;;10.60;99.90;;;;;;5043388;28;20765;-59
2023/04/12 09:49:37;;;;;;;4.27;3.30;;;10.60;99.90;;;;;;5046686;28;20269;-59
2023/04/12 09:52:04;;;;;;;3.33;3.03;;;10.50;99.90;;;;;;5044063;28;20537;-59
2023/04/12 09:54:32;;;;;;;5.20;3.30;;;10.50;99.90;;;;;;5044101;28;21013;-58
2023/04/12 09:56:58;;;;;;;7.80;3.67;;;10.50;99.90;;;;;;5042443;28;20426;-59
2023/04/12 09:59:27;;;;;;;5.83;2.90;;;10.50;99.90;;;;;;5026708;28;20829;-59
2023/04/12 10:01:53;;;;;;;2.80;2.60;;;10.50;99.90;;;;;;5048120;28;20437;-59
2023/04/12 10:04:19;;;;;;;4.33;2.40;;;10.60;99.90;;;;;;5039845;28;20476;-59
2023/04/12 10:06:45;;;;;;;4.00;2.77;;;10.60;99.90;;;;;;5037874;28;20462;-58
2023/04/12 10:09:13;;;;;;;2.57;2.10;;;10.70;99.90;;;;;;5034912;28;20441;-60
2023/04/12 10:11:40;;;;;;;5.20;2.27;;;10.90;99.90;;;;;;5037661;28;20432;-60
2023/04/12 10:14:06;;;;;;;2.47;1.97;;;11.00;99.90;;;;;;5041739;28;20514;-60
2023/04/12 10:16:35;;;;;;;2.47;2.03;;;11.00;99.90;;;;;;5044507;28;20425;-59
2023/04/12 10:19:02;;;;;;;2.80;1.90;;;11.10;99.90;;;;;;5037242;28;20218;-61
2023/04/12 10:21:29;;;;;;;1.97;1.87;;;11.10;99.90;;;;;;5045650;28;20489;-60
2023/04/12 10:23:56;;;;;;;3.00;2.33;;;11.10;99.90;;;;;;5039156;28;20441;-59
2023/04/12 10:26:22;;;;;;;4.20;1.90;;;11.20;99.90;;;;;;5041283;28;20452;-59
2023/04/12 10:29:24;;;;;;;3.60;2.30;;;11.20;99.90;;;;;;5043515;28;20429;-60
2023/04/12 10:31:50;;;;;;;1.70;1.60;;;11.20;99.90;;;;;;5041268;28;20175;-60
2023/04/12 10:34:16;;;;;;;1.60;1.50;;;11.30;99.90;;;;;;5027714;28;20497;-60
2023/04/12 10:37:00;;;;;;;2.23;1.80;;;11.30;99.90;;;;;;5043090;28;20461;-60
2023/04/12 10:39:38;;;;;;;1.70;1.60;;;11.40;99.90;;;;;;5037910;28;20316;-59
2023/04/12 10:42:23;;;;;;;2.50;1.70;;;11.50;99.90;;;;;;5040174;28;20433;-59
2023/04/12 10:44:54;;;;;;;2.60;1.67;;;11.50;99.90;;;;;;5038537;28;20556;-60
2023/04/12 10:47:57;;;;;;;1.73;1.63;;;11.40;99.90;;;;;;5030257;28;20448;-59
2023/04/12 10:50:28;;;;;;;1.83;1.40;;;11.30;99.90;;;;;;5008719;28;20426;-59
2023/04/12 10:53:14;;;;;;;1.93;1.70;;;11.30;99.90;;;;;;5047406;28;20987;-59
2023/04/12 10:55:41;;;;;;;2.90;1.70;;;11.20;99.90;;;;;;5047254;28;20440;-60
2023/04/12 10:58:07;;;;;;;2.43;2.03;;;11.20;99.90;;;;;;5045299;28;20469;-58
2023/04/12 11:00:58;;;;;;;2.23;1.70;;;11.30;99.90;;;;;;5040099;28;20440;-58
2023/04/12 11:03:25;;;;;;;2.10;1.70;;;11.40;99.90;;;;;;5044080;28;20462;-59
2023/04/12 11:05:57;;;;;;;3.53;1.80;;;11.50;99.90;;;;;;5028552;28;20433;-59
2023/04/12 11:08:23;;;;;;;2.60;2.00;;;11.60;99.90;;;;;;5013280;28;20457;-59
2023/04/12 11:10:49;;;;;;;3.87;1.73;;;11.70;99.90;;;;;;5021473;28;20488;-59
2023/04/12 11:13:15;;;;;;;1.70;1.53;;;11.70;99.90;;;;;;5036662;28;20875;-60
2023/04/12 11:15:41;;;;;;;2.00;1.70;;;11.80;99.90;;;;;;5017856;28;20441;-60
2023/04/12 11:18:07;;;;;;;1.50;1.40;;;11.90;99.90;;;;;;5010902;28;20518;-60
2023/04/12 11:20:33;;;;;;;1.97;1.83;;;11.90;97.30;;;;;;5031752;28;20179;-57
2023/04/12 11:22:59;;;;;;;2.70;1.60;;;11.90;96.50;;;;;;5028363;28;20666;-59
2023/04/12 11:25:25;;;;;;;2.00;1.30;;;11.90;96.00;;;;;;5020678;28;20263;-59
2023/04/12 11:27:53;;;;;;;1.87;1.70;;;11.80;97.50;;;;;;5030874;28;20449;-64
2023/04/12 11:30:19;;;;;;;1.97;1.57;;;11.80;99.00;;;;;;5030717;28;20440;-58
2023/04/12 11:32:46;;;;;;;3.47;1.50;;;11.80;97.90;;;;;;5031235;28;20442;-57
2023/04/12 11:35:14;;;;;;;3.23;1.57;;;11.80;98.10;;;;;;5026798;28;20202;-58
2023/04/12 11:37:40;;;;;;;4.17;1.77;;;11.80;98.00;;;;;;5020659;28;20862;-60
2023/04/12 11:40:08;;;;;;;4.90;3.30;;;11.80;98.90;;;;;;5017710;28;20430;-59
2023/04/12 11:42:34;;;;;;;4.43;2.10;;;11.90;99.70;;;;;;5022349;28;20190;-58
2023/04/12 11:44:59;;;;;;;3.40;2.53;;;11.90;99.10;;;;;;5025180;28;20965;-60
2023/04/12 11:47:26;;;;;;;4.40;1.67;;;12.00;99.90;;;;;;5039701;28;20465;-58
2023/04/12 11:49:55;;;;;;;1.53;1.30;;;12.10;99.90;;;;;;5022167;28;21049;-60
2023/04/12 11:52:26;;;;;;;5.10;1.93;;;12.20;99.90;;;;;;5022299;28;20429;-60
2023/04/12 11:54:55;;;;;;;3.20;1.60;;;12.20;98.50;;;;;;5025267;28;20981;-59
2023/04/12 11:57:21;;;;;;;1.90;1.47;;;12.30;96.90;;;;;;5040940;28;20453;-59
2023/04/12 11:59:47;;;;;;;4.50;1.70;;;12.20;96.60;;;;;;5025779;28;20433;-59
2023/04/12 12:02:14;;;;;;;1.77;1.57;;;12.20;97.70;;;;;;5003521;28;20614;-58
2023/04/12 12:04:43;;;;;;;1.40;1.30;;;12.10;98.40;;;;;;5019541;28;20495;-59
2023/04/12 12:07:10;;;;;;;3.87;1.40;;;12.10;97.20;;;;;;5024702;28;20438;-59
2023/04/12 12:09:37;;;;;;;1.20;1.10;;;12.10;98.10;;;;;;5029554;28;21103;-59
2023/04/12 12:12:03;;;;;;;1.30;1.20;;;12.20;98.90;;;;;;5035466;28;20425;-59
2023/04/12 12:14:34;;;;;;;3.07;1.50;;;12.30;98.80;;;;;;5023455;28;20446;-59
2023/04/12 12:16:59;;;;;;;2.47;1.50;;;12.30;99.70;;;;;;5023471;28;20837;-58
2023/04/12 12:19:43;;;;;;;5.73;1.40;;;12.40;97.60;;;;;;5025737;28;20453;-59
2023/04/12 12:22:16;;;;;;;1.50;1.40;;;12.50;96.90;;;;;;5015024;28;20310;-59
2023/04/12 12:25:00;;;;;;;3.73;1.60;;;12.60;94.60;;;;;;5031055;28;21353;-59
2023/04/12 12:27:29;;;;;;;1.60;1.50;;;12.60;95.30;;;;;;5022521;28;20437;-59
2023/04/12 12:29:54;;;;;;;3.80;1.60;;;12.60;95.80;;;;;;5041017;28;20441;-58
2023/04/12 12:32:22;;;;;;;3.73;1.50;;;12.60;95.60;;;;;;5027889;28;20433;-60
2023/04/12 12:34:52;;;;;;;2.77;1.47;;;12.70;91.80;;;;;;5023276;28;20206;-61
2023/04/12 12:37:20;;;;;;;2.43;1.80;;;12.70;93.30;;;;;;5020271;28;20489;-59
2023/04/12 12:40:15;;;;;;;5.23;1.60;;;12.60;94.40;;;;;;5028077;28;20430;-58
2023/04/12 12:42:45;;;;;;;2.67;1.47;;;12.70;94.10;;;;;;5028485;28;20431;-59
2023/04/12 12:45:12;;;;;;;2.13;1.30;;;13.00;95.50;;;;;;5021358;28;20502;-59
2023/04/12 12:47:49;;;;;;;4.40;1.60;;;13.50;90.60;;;;;;5019218;28;20438;-59
2023/04/12 12:50:21;;;;;;;4.83;1.40;;;13.90;81.30;;;;;;5038602;28;20491;-60
2023/04/12 12:52:47;;;;;;;1.30;1.20;;;14.30;73.20;;;;;;5041516;28;20448;-60
2023/04/12 12:55:14;;;;;;;1.20;1.00;;;14.60;65.20;;;;;;5045455;28;20818;-60
2023/04/12 12:57:45;;;;;;;1.60;1.10;;;14.90;64.20;;;;;;5035241;28;20195;-61